createdAt,value
2018-05-23T00:00:07.033Z,2.87
2018-05-23T00:02:34.681Z,3.10
2018-05-23T00:05:02.237Z,2.90
2018-05-23T00:07:29.517Z,3.40
2018-05-23T00:09:56.805Z,3.10
2018-05-23T00:12:24.477Z,3.40
2018-05-23T00:14:51.743Z,3.10
2018-05-23T00:17:19.050Z,3.50
2018-05-23T00:19:46.358Z,2.90
2018-05-23T00:22:13.928Z,3.30
2018-05-23T00:24:41.233Z,3.40
2018-05-23T00:27:08.579Z,3.10
2018-05-23T00:29:35.898Z,3.30
2018-05-23T00:32:03.170Z,3.30
2018-05-23T00:34:30.498Z,3.10
2018-05-23T00:36:57.959Z,3.50
2018-05-23T00:39:25.272Z,3.78
2018-05-23T00:41:52.628Z,3.70
2018-05-23T00:44:19.852Z,3.60
2018-05-23T00:46:47.204Z,4.00
2018-05-23T00:49:14.469Z,3.70
2018-05-23T00:51:41.805Z,3.87
2018-05-23T00:54:09.107Z,3.65
2018-05-23T00:56:36.540Z,3.60
2018-05-23T00:59:03.817Z,3.80
2018-05-23T01:01:31.109Z,3.70
2018-05-23T01:03:58.413Z,3.92
2018-05-23T01:06:25.742Z,4.00
2018-05-23T01:08:53.053Z,3.90
2018-05-23T01:11:20.362Z,3.80
2018-05-23T01:13:47.644Z,3.70
2018-05-23T01:16:14.989Z,3.90
2018-05-23T01:18:42.272Z,3.90
2018-05-23T01:21:09.842Z,3.40
2018-05-23T01:23:37.241Z,3.90
2018-05-23T01:26:04.542Z,3.60
2018-05-23T01:28:31.848Z,3.60
2018-05-23T01:30:59.149Z,3.35
2018-05-23T01:33:26.721Z,3.40
2018-05-23T01:35:54.037Z,3.40
2018-05-23T01:38:21.636Z,3.60
2018-05-23T01:40:49.053Z,3.37
2018-05-23T01:43:16.350Z,2.97
2018-05-23T01:45:43.624Z,3.20
2018-05-23T01:48:10.923Z,3.10
2018-05-23T01:50:38.197Z,3.12
2018-05-23T01:53:05.554Z,3.10
2018-05-23T01:55:33.128Z,3.20
2018-05-23T01:58:00.681Z,2.97
2018-05-23T02:00:27.969Z,3.10
2018-05-23T02:02:55.281Z,3.55
2018-05-23T02:05:22.606Z,3.37
2018-05-23T02:07:49.907Z,3.10
2018-05-23T02:10:17.184Z,3.20
2018-05-23T02:12:44.545Z,3.75
2018-05-23T02:15:11.854Z,3.50
2018-05-23T02:17:39.172Z,3.50
2018-05-23T02:20:06.465Z,3.70
2018-05-23T02:22:33.752Z,3.43
2018-05-23T02:25:01.287Z,3.75
2018-05-23T02:27:28.553Z,3.50
2018-05-23T02:29:55.858Z,3.87
2018-05-23T02:32:23.450Z,3.50
2018-05-23T02:34:50.979Z,3.55
2018-05-23T02:37:18.584Z,3.60
2018-05-23T02:39:46.132Z,3.80
2018-05-23T02:42:13.430Z,3.80
2018-05-23T02:44:41.058Z,3.80
2018-05-23T02:47:08.428Z,3.78
2018-05-23T02:49:35.689Z,3.95
2018-05-23T02:52:02.954Z,3.70
2018-05-23T02:54:30.293Z,3.90
2018-05-23T02:56:57.560Z,3.70
2018-05-23T02:59:24.835Z,3.90
2018-05-23T03:01:52.171Z,3.80
2018-05-23T03:04:19.436Z,4.15
2018-05-23T03:06:46.731Z,3.17
2018-05-23T03:09:14.077Z,3.70
2018-05-23T03:11:41.336Z,3.33
2018-05-23T03:14:08.607Z,3.70
2018-05-23T03:16:35.892Z,3.87
2018-05-23T03:19:03.169Z,3.33
2018-05-23T03:21:30.468Z,3.60
2018-05-23T03:23:57.752Z,3.20
2018-05-23T03:26:25.054Z,3.70
2018-05-23T03:28:52.379Z,3.40
2018-05-23T03:31:19.640Z,3.37
2018-05-23T03:33:46.933Z,3.65
2018-05-23T03:36:14.212Z,3.57
2018-05-23T03:38:41.545Z,3.83
2018-05-23T03:41:08.857Z,3.58
2018-05-23T03:43:36.456Z,3.35
2018-05-23T03:46:03.742Z,3.55
2018-05-23T03:48:31.105Z,3.28
2018-05-23T03:50:58.402Z,3.95
2018-05-23T03:53:25.747Z,3.73
2018-05-23T03:55:53.012Z,3.50
2018-05-23T03:58:20.345Z,3.22
2018-05-23T04:00:53.389Z,3.40
2018-05-23T04:03:26.565Z,3.40
2018-05-23T04:05:59.621Z,3.30
2018-05-23T04:08:26.965Z,3.80
2018-05-23T04:10:54.265Z,3.20
2018-05-23T04:13:21.545Z,3.15
2018-05-23T04:15:48.844Z,3.00
2018-05-23T04:20:49.358Z,3.10
2018-05-23T04:23:16.873Z,3.20
2018-05-23T04:25:44.426Z,3.20
2018-05-23T04:28:11.822Z,3.40
2018-05-23T04:30:39.148Z,2.90
2018-05-23T04:33:06.467Z,3.15
2018-05-23T04:35:33.787Z,2.90
2018-05-23T04:38:01.407Z,3.15
2018-05-23T04:40:28.701Z,3.35
2018-05-23T04:42:56.014Z,3.00
2018-05-23T04:45:23.362Z,3.00
2018-05-23T04:47:50.930Z,3.08
2018-05-23T04:50:18.229Z,3.20
2018-05-23T04:52:45.851Z,2.90
2018-05-23T04:55:13.129Z,2.70
2018-05-23T04:57:40.425Z,3.30
2018-05-23T05:00:08.009Z,3.20
2018-05-23T05:02:35.293Z,3.20
2018-05-23T05:05:02.598Z,2.90
2018-05-23T05:07:29.911Z,3.35
2018-05-23T05:09:57.252Z,3.30
2018-05-23T05:12:24.474Z,3.42
2018-05-23T05:14:51.768Z,3.17
2018-05-23T05:17:19.126Z,2.90
2018-05-23T05:19:46.754Z,3.40
2018-05-23T05:22:14.320Z,2.70
2018-05-23T05:24:41.605Z,2.80
2018-05-23T05:27:08.904Z,2.80
2018-05-23T05:29:36.226Z,3.10
2018-05-23T05:32:03.517Z,3.00
2018-05-23T05:34:30.825Z,3.20
2018-05-23T05:36:58.116Z,3.37
2018-05-23T05:39:25.697Z,2.80
2018-05-23T05:41:52.974Z,2.70
2018-05-23T05:44:20.514Z,2.80
2018-05-23T05:46:47.822Z,3.08
2018-05-23T05:49:15.158Z,2.70
2018-05-23T05:51:42.453Z,2.83
2018-05-23T05:54:09.725Z,2.62
2018-05-23T05:56:37.009Z,2.87
2018-05-23T05:59:04.311Z,2.83
2018-05-23T06:01:31.625Z,2.75
2018-05-23T06:03:58.937Z,2.40
2018-05-23T06:06:26.506Z,2.60
2018-05-23T06:08:53.780Z,2.50
2018-05-23T06:11:21.061Z,2.55
2018-05-23T06:13:48.389Z,2.80
2018-05-23T06:16:15.668Z,2.20
2018-05-23T06:18:42.989Z,2.42
2018-05-23T06:21:10.310Z,2.30
2018-05-23T06:23:37.891Z,2.22
2018-05-23T06:26:05.205Z,2.30
2018-05-23T06:28:32.807Z,2.20
2018-05-23T06:31:00.100Z,2.20
2018-05-23T06:33:27.613Z,1.92
2018-05-23T06:35:54.897Z,2.20
2018-05-23T06:38:22.185Z,2.00
2018-05-23T06:40:49.785Z,1.92
2018-05-23T06:43:17.073Z,1.90
2018-05-23T06:45:44.592Z,2.00
2018-05-23T06:48:11.884Z,1.98
2018-05-23T06:50:39.410Z,1.90
2018-05-23T06:53:06.710Z,2.00
2018-05-23T06:55:34.042Z,2.13
2018-05-23T06:58:01.324Z,1.90
2018-05-23T07:00:28.621Z,2.10
2018-05-23T07:02:56.130Z,1.80
2018-05-23T07:05:23.413Z,1.80
2018-05-23T07:07:50.735Z,1.87
2018-05-23T07:10:18.038Z,2.10
2018-05-23T07:12:45.609Z,2.00
2018-05-23T07:15:12.919Z,1.70
2018-05-23T07:17:40.207Z,1.70
2018-05-23T07:20:07.481Z,1.87
2018-05-23T07:22:34.778Z,2.03
2018-05-23T07:25:02.097Z,1.90
2018-05-23T07:27:29.740Z,1.77
2018-05-23T07:29:57.045Z,1.87
2018-05-23T07:32:24.313Z,1.80
2018-05-23T07:34:51.617Z,1.80
2018-05-23T07:37:18.927Z,1.90
2018-05-23T07:39:46.230Z,1.80
2018-05-23T07:42:13.555Z,1.70
2018-05-23T07:44:40.865Z,2.00
2018-05-23T07:47:08.143Z,2.12
2018-05-23T07:49:35.408Z,1.95
2018-05-23T07:52:02.742Z,1.90
2018-05-23T07:54:30.021Z,1.90
2018-05-23T07:56:57.360Z,1.92
2018-05-23T07:59:24.824Z,1.60
2018-05-23T08:01:52.108Z,1.80
2018-05-23T08:04:19.409Z,1.73
2018-05-23T08:06:46.717Z,1.62
2018-05-23T08:09:14.261Z,1.60
2018-05-23T08:11:41.639Z,2.10
2018-05-23T08:14:08.854Z,1.63
2018-05-23T08:16:36.161Z,2.00
2018-05-23T08:19:03.436Z,1.50
2018-05-23T08:21:30.932Z,1.60
2018-05-23T08:23:58.213Z,1.98
2018-05-23T08:26:25.757Z,2.60
2018-05-23T08:28:53.073Z,1.73
2018-05-23T08:31:20.660Z,2.50
2018-05-23T08:33:47.932Z,1.62
2018-05-23T08:36:15.299Z,1.60
2018-05-23T08:38:42.628Z,1.20
2018-05-23T08:41:09.891Z,1.52
2018-05-23T08:43:37.185Z,1.60
2018-05-23T08:46:04.592Z,1.35
2018-05-23T08:48:32.063Z,1.40
2018-05-23T08:50:59.356Z,1.60
2018-05-23T08:53:26.681Z,1.80
2018-05-23T08:55:53.988Z,1.50
2018-05-23T08:58:21.279Z,1.40
2018-05-23T09:00:48.578Z,1.40
2018-05-23T09:03:15.878Z,1.77
2018-05-23T09:05:43.171Z,2.20
2018-05-23T09:08:10.436Z,1.60
2018-05-23T09:10:37.828Z,1.50
2018-05-23T09:13:05.392Z,2.03
2018-05-23T09:15:33.066Z,1.50
2018-05-23T09:18:00.343Z,1.83
2018-05-23T09:20:27.667Z,1.45
2018-05-23T09:22:54.927Z,1.80
2018-05-23T09:25:22.236Z,1.55
2018-05-23T09:27:49.526Z,1.65
2018-05-23T09:30:16.830Z,1.50
2018-05-23T09:32:44.451Z,1.60
2018-05-23T09:35:11.733Z,1.60
2018-05-23T09:37:39.016Z,1.70
2018-05-23T09:40:06.614Z,2.00
2018-05-23T09:42:33.910Z,1.60
2018-05-23T09:45:01.227Z,1.60
2018-05-23T09:47:28.542Z,1.30
2018-05-23T09:49:55.841Z,1.55
2018-05-23T09:52:23.206Z,1.60
2018-05-23T09:54:50.845Z,1.70
2018-05-23T09:57:18.509Z,1.50
2018-05-23T09:59:49.684Z,1.50
2018-05-23T10:02:16.987Z,1.50
2018-05-23T10:04:44.324Z,1.30
2018-05-23T10:07:11.946Z,1.60
2018-05-23T10:09:39.850Z,1.50
2018-05-23T10:12:07.189Z,1.37
2018-05-23T10:14:35.880Z,1.30
2018-05-23T10:17:03.761Z,1.45
2018-05-23T10:19:31.747Z,1.50
2018-05-23T10:21:59.054Z,1.30
2018-05-23T10:24:26.428Z,1.30
2018-05-23T10:26:54.042Z,1.30
2018-05-23T10:29:21.603Z,1.50
2018-05-23T10:31:49.121Z,1.40
2018-05-23T10:34:16.421Z,1.70
2018-05-23T10:36:43.975Z,2.00
2018-05-23T10:39:11.563Z,1.67
2018-05-23T10:41:38.812Z,1.60
2018-05-23T10:44:06.123Z,1.30
2018-05-23T10:46:33.703Z,1.70
2018-05-23T10:49:01.230Z,1.60
2018-05-23T10:51:28.533Z,1.40
2018-05-23T10:53:55.832Z,1.60
2018-05-23T10:56:23.329Z,1.73
2018-05-23T10:58:50.886Z,1.60
2018-05-23T11:01:18.443Z,1.60
2018-05-23T11:03:45.713Z,1.80
2018-05-23T11:06:13.026Z,1.90
2018-05-23T11:08:40.321Z,1.90
2018-05-23T11:11:07.592Z,2.08
2018-05-23T11:13:35.125Z,1.75
2018-05-23T11:16:02.425Z,2.00
2018-05-23T11:18:29.733Z,2.17
2018-05-23T11:20:57.005Z,1.73
2018-05-23T11:23:24.652Z,1.75
2018-05-23T11:25:51.926Z,1.60
2018-05-23T11:28:19.225Z,1.80
2018-05-23T11:30:46.813Z,1.40
2018-05-23T11:33:14.858Z,1.50
2018-05-23T11:35:42.444Z,1.60
2018-05-23T11:38:09.766Z,1.45
2018-05-23T11:40:37.066Z,1.70
2018-05-23T11:43:04.609Z,1.40
2018-05-23T11:45:31.903Z,1.42
2018-05-23T11:47:59.176Z,1.40
2018-05-23T11:50:26.680Z,1.60
2018-05-23T11:52:53.973Z,1.62
2018-05-23T11:55:21.278Z,1.50
2018-05-23T11:57:48.583Z,1.50
2018-05-23T12:00:16.207Z,1.70
2018-05-23T12:02:43.766Z,1.62
2018-05-23T12:05:11.062Z,1.60
2018-05-23T12:07:38.389Z,1.60
2018-05-23T12:10:05.933Z,1.40
2018-05-23T12:12:33.209Z,1.70
2018-05-23T12:15:15.516Z,1.67
2018-05-23T12:17:43.048Z,1.60
2018-05-23T12:20:10.613Z,1.70
2018-05-23T12:22:37.901Z,1.60
2018-05-23T12:25:05.176Z,2.03
2018-05-23T12:27:32.785Z,1.40
2018-05-23T12:30:00.072Z,1.80
2018-05-23T12:32:27.341Z,1.40
2018-05-23T12:34:54.650Z,1.70
2018-05-23T12:37:21.937Z,1.70
2018-05-23T12:40:18.354Z,1.40
2018-05-23T12:42:45.674Z,1.50
2018-05-23T12:45:12.948Z,1.60
2018-05-23T12:47:40.257Z,1.50
2018-05-23T12:50:07.586Z,1.80
2018-05-23T12:52:35.107Z,1.50
2018-05-23T12:55:02.412Z,1.60
2018-05-23T12:57:29.729Z,1.90
2018-05-23T12:59:57.005Z,1.50
2018-05-23T13:02:24.318Z,1.90
2018-05-23T13:04:51.887Z,1.55
2018-05-23T13:07:19.441Z,1.37
2018-05-23T13:09:46.792Z,1.55
2018-05-23T13:12:14.147Z,1.40
2018-05-23T13:14:41.487Z,2.30
2018-05-23T13:17:08.844Z,2.60
2018-05-23T13:19:36.160Z,1.93
2018-05-23T13:22:03.493Z,1.87
2018-05-23T13:24:31.120Z,1.60
2018-05-23T13:26:58.981Z,1.90
2018-05-23T13:29:26.583Z,1.80
2018-05-23T13:31:53.926Z,1.60
2018-05-23T13:34:21.291Z,1.90
2018-05-23T13:36:48.691Z,1.80
2018-05-23T13:39:16.086Z,1.70
2018-05-23T13:41:43.494Z,1.75
2018-05-23T13:44:10.799Z,1.92
2018-05-23T13:46:38.155Z,1.90
2018-05-23T13:49:05.462Z,1.65
2018-05-23T13:51:32.842Z,1.60
2018-05-23T13:54:00.185Z,1.70
2018-05-23T13:56:27.544Z,1.30
2018-05-23T13:58:54.884Z,1.50
2018-05-23T14:01:22.352Z,1.50
2018-05-23T14:03:49.707Z,1.80
2018-05-23T14:06:17.046Z,1.50
2018-05-23T14:08:44.441Z,1.70
2018-05-23T14:11:11.811Z,1.97
2018-05-23T14:13:39.226Z,2.53
2018-05-23T14:16:06.583Z,1.48
2018-05-23T14:18:33.948Z,2.08
2018-05-23T14:21:01.352Z,2.10
2018-05-23T14:23:29.008Z,1.80
2018-05-23T14:25:56.344Z,1.97
2018-05-23T14:28:23.848Z,2.00
2018-05-23T14:30:51.584Z,1.80
2018-05-23T14:33:18.944Z,2.35
2018-05-23T14:35:46.323Z,1.90
2018-05-23T14:38:13.747Z,1.90
2018-05-23T14:40:41.116Z,2.20
2018-05-23T14:43:08.498Z,2.00
2018-05-23T14:45:35.856Z,1.83
2018-05-23T14:48:03.215Z,2.47
2018-05-23T14:50:30.559Z,2.60
2018-05-23T14:52:57.926Z,1.87
2018-05-23T14:55:25.267Z,2.17
2018-05-23T14:57:52.620Z,3.10
2018-05-23T15:00:19.945Z,2.20
2018-05-23T15:02:47.303Z,2.05
2018-05-23T15:05:14.611Z,2.40
2018-05-23T15:07:42.011Z,2.50
2018-05-23T15:10:09.675Z,2.17
2018-05-23T15:12:37.028Z,1.90
2018-05-23T15:15:04.373Z,1.75
2018-05-23T15:17:31.693Z,1.92
2018-05-23T15:19:59.058Z,2.10
2018-05-23T15:22:26.412Z,2.00
2018-05-23T15:24:53.823Z,2.10
2018-05-23T15:27:21.367Z,1.83
2018-05-23T15:29:48.738Z,1.90
2018-05-23T15:32:16.273Z,2.00
2018-05-23T15:34:43.739Z,2.15
2018-05-23T15:37:11.094Z,2.05
2018-05-23T15:39:38.440Z,1.87
2018-05-23T15:42:05.815Z,1.90
2018-05-23T15:44:33.129Z,1.70
2018-05-23T15:47:00.466Z,1.98
2018-05-23T15:49:27.796Z,2.15
2018-05-23T15:51:55.133Z,1.90
2018-05-23T15:54:22.454Z,1.60
2018-05-23T15:56:49.837Z,2.12
2018-05-23T15:59:17.391Z,1.80
2018-05-23T16:01:44.719Z,2.10
2018-05-23T16:04:12.013Z,1.70
2018-05-23T16:06:39.661Z,1.80
2018-05-23T16:09:07.000Z,1.77
2018-05-23T16:11:34.334Z,1.70
2018-05-23T16:14:01.687Z,2.17
2018-05-23T16:16:29.029Z,1.98
2018-05-23T16:18:56.375Z,1.50
2018-05-23T16:21:23.726Z,1.80
2018-05-23T16:23:51.057Z,1.65
2018-05-23T16:26:18.712Z,1.40
2018-05-23T16:28:46.382Z,1.73
2018-05-23T16:31:13.714Z,1.77
2018-05-23T16:33:41.017Z,1.50
2018-05-23T16:36:08.413Z,1.60
2018-05-23T16:38:35.791Z,1.60
2018-05-23T16:41:03.138Z,1.70
2018-05-23T16:43:30.541Z,1.70
2018-05-23T16:45:57.875Z,1.60
2018-05-23T16:48:25.214Z,1.50
2018-05-23T16:50:52.980Z,1.50
2018-05-23T16:53:20.781Z,1.40
2018-05-23T16:55:48.130Z,1.40
2018-05-23T16:58:15.759Z,1.50
2018-05-23T17:00:43.103Z,1.80
2018-05-23T17:03:10.439Z,1.40
2018-05-23T17:05:37.906Z,1.60
2018-05-23T17:08:05.213Z,1.50
2018-05-23T17:10:32.522Z,1.70
2018-05-23T17:12:59.905Z,1.50
2018-05-23T17:15:27.239Z,1.77
2018-05-23T17:17:54.576Z,1.70
2018-05-23T17:20:21.918Z,1.50
2018-05-23T17:22:49.270Z,2.20
2018-05-23T17:25:16.576Z,1.80
2018-05-23T17:27:44.226Z,2.30
2018-05-23T17:30:11.529Z,2.03
2018-05-23T17:32:38.874Z,2.40
2018-05-23T17:35:06.223Z,2.00
2018-05-23T17:37:33.800Z,1.70
2018-05-23T17:40:01.105Z,1.40
2018-05-23T17:42:28.484Z,1.85
2018-05-23T17:44:55.783Z,1.50
2018-05-23T17:47:23.115Z,1.75
2018-05-23T17:49:50.457Z,2.53
2018-05-23T17:52:17.750Z,1.30
2018-05-23T17:54:45.066Z,1.60
2018-05-23T17:57:12.435Z,1.50
2018-05-23T17:59:39.970Z,2.03
2018-05-23T18:02:07.279Z,2.00
2018-05-23T18:04:34.629Z,2.23
2018-05-23T18:07:01.979Z,1.60
2018-05-23T18:09:29.291Z,1.60
2018-05-23T18:11:56.644Z,2.20
2018-05-23T18:14:24.067Z,1.90
2018-05-23T18:16:51.451Z,1.65
2018-05-23T18:19:18.707Z,1.80
2018-05-23T18:21:46.359Z,2.50
2018-05-23T18:24:13.666Z,2.00
2018-05-23T18:26:41.031Z,2.20
2018-05-23T18:29:08.619Z,2.03
2018-05-23T18:31:36.289Z,1.90
2018-05-23T18:34:03.947Z,2.50
2018-05-23T18:36:31.285Z,2.00
2018-05-23T18:38:58.621Z,1.70
2018-05-23T18:41:25.974Z,1.83
2018-05-23T18:43:53.319Z,2.10
2018-05-23T18:46:20.667Z,2.30
2018-05-23T18:48:48.027Z,2.00
2018-05-23T18:51:15.333Z,2.20
2018-05-23T18:53:42.710Z,1.60
2018-05-23T18:56:10.085Z,1.80
2018-05-23T18:58:51.885Z,1.80
2018-05-23T19:01:19.221Z,1.70
2018-05-23T19:03:46.529Z,2.20
2018-05-23T19:06:13.876Z,2.03
2018-05-23T19:08:41.212Z,3.08
2018-05-23T19:11:08.922Z,2.70
2018-05-23T19:13:36.583Z,2.10
2018-05-23T19:16:03.954Z,1.73
2018-05-23T19:18:31.597Z,1.85
2018-05-23T19:20:58.928Z,1.90
2018-05-23T19:23:26.283Z,2.10
2018-05-23T19:25:53.872Z,1.52
2018-05-23T19:28:21.212Z,1.50
2018-05-23T19:30:48.562Z,2.50
2018-05-23T19:33:15.915Z,2.12
2018-05-23T19:35:43.241Z,2.90
2018-05-23T19:40:38.786Z,2.20
2018-05-23T19:43:06.127Z,2.20
2018-05-23T19:45:33.695Z,1.70
2018-05-23T19:48:01.046Z,1.40
2018-05-23T19:50:28.383Z,1.60
2018-05-23T19:52:55.755Z,1.70
2018-05-23T19:55:23.074Z,2.03
2018-05-23T19:57:50.414Z,1.60
2018-05-23T20:00:17.800Z,1.80
2018-05-23T20:02:45.171Z,1.90
2018-05-23T20:05:12.543Z,1.75
2018-05-23T20:07:39.848Z,1.60
2018-05-23T20:10:07.187Z,1.70
2018-05-23T20:12:34.511Z,2.10
2018-05-23T20:15:01.851Z,3.10
2018-05-23T20:17:29.204Z,4.05
2018-05-23T20:19:56.806Z,2.20
2018-05-23T20:22:24.139Z,1.80
2018-05-23T20:24:51.491Z,1.50
2018-05-23T20:27:18.823Z,1.50
2018-05-23T20:29:46.433Z,1.50
2018-05-23T20:32:13.757Z,1.60
2018-05-23T20:34:41.433Z,1.70
2018-05-23T20:37:09.119Z,1.70
2018-05-23T20:39:36.474Z,1.58
2018-05-23T20:42:03.770Z,1.48
2018-05-23T20:44:31.071Z,1.20
2018-05-23T20:46:58.390Z,1.50
2018-05-23T20:49:25.690Z,1.67
2018-05-23T20:51:53.051Z,1.65
2018-05-23T20:54:20.453Z,1.50
2018-05-23T20:56:47.753Z,1.60
2018-05-23T20:59:15.058Z,1.50
2018-05-23T21:01:42.394Z,1.52
2018-05-23T21:04:10.086Z,1.50
2018-05-23T21:06:37.500Z,1.33
2018-05-23T21:09:05.743Z,1.40
2018-05-23T21:11:33.364Z,1.40
2018-05-23T21:14:00.820Z,1.40
2018-05-23T21:16:35.056Z,1.73
2018-05-23T21:19:11.193Z,1.30
2018-05-23T21:21:45.549Z,1.70
2018-05-23T21:24:12.857Z,1.55
2018-05-23T21:26:40.191Z,1.50
2018-05-23T21:29:14.516Z,1.50
2018-05-23T21:31:45.688Z,11.35
2018-05-23T21:34:15.518Z,1.60
2018-05-23T21:36:43.078Z,1.85
2018-05-23T21:39:10.659Z,1.70
2018-05-23T21:41:38.178Z,1.50
2018-05-23T21:44:05.479Z,1.70
2018-05-23T21:46:32.952Z,1.40
2018-05-23T21:49:00.311Z,1.50
2018-05-23T21:51:27.644Z,1.60
2018-05-23T21:53:54.942Z,1.50
2018-05-23T21:56:22.296Z,1.50
2018-05-23T21:58:49.826Z,1.60
2018-05-23T22:01:17.185Z,1.40
2018-05-23T22:03:44.579Z,1.40
2018-05-23T22:06:11.881Z,1.75
2018-05-23T22:08:39.185Z,1.60
2018-05-23T22:11:06.573Z,1.60
2018-05-23T22:13:33.910Z,1.70
2018-05-23T22:16:01.227Z,1.60
2018-05-23T22:18:28.574Z,1.40
2018-05-23T22:20:55.903Z,1.75
2018-05-23T22:23:23.330Z,1.92
2018-05-23T22:25:50.661Z,2.67
2018-05-23T22:28:17.999Z,4.13
2018-05-23T22:30:45.425Z,2.05
2018-05-23T22:33:12.673Z,1.60
2018-05-23T22:35:40.017Z,1.55
2018-05-23T22:38:07.331Z,1.62
2018-05-23T22:40:34.696Z,1.60
2018-05-23T22:43:02.002Z,1.50
2018-05-23T22:45:29.514Z,1.50
2018-05-23T22:47:56.890Z,1.60
2018-05-23T22:50:24.390Z,1.45
2018-05-23T22:52:51.848Z,1.80
2018-05-23T22:55:19.185Z,1.40
2018-05-23T22:57:46.773Z,1.52
2018-05-23T23:00:19.571Z,1.50
2018-05-23T23:02:46.827Z,1.40
2018-05-23T23:05:14.158Z,1.70
2018-05-23T23:07:41.815Z,1.40
2018-05-23T23:10:09.175Z,1.58
2018-05-23T23:12:36.518Z,1.50
2018-05-23T23:15:04.188Z,1.40
2018-05-23T23:17:31.527Z,1.50
2018-05-23T23:19:58.875Z,1.40
2018-05-23T23:22:32.002Z,1.50
2018-05-23T23:24:59.390Z,1.40
2018-05-23T23:27:26.700Z,1.63
2018-05-23T23:29:54.367Z,1.50
2018-05-23T23:32:21.706Z,1.50
2018-05-23T23:34:49.202Z,1.80
2018-05-23T23:37:16.559Z,1.77
2018-05-23T23:39:44.199Z,1.60
2018-05-23T23:42:11.579Z,1.50
2018-05-23T23:44:38.969Z,1.65
2018-05-23T23:47:06.268Z,1.40
2018-05-23T23:49:33.931Z,1.60
2018-05-23T23:52:01.254Z,1.70
2018-05-23T23:54:28.711Z,1.65
2018-05-23T23:56:56.066Z,1.70
2018-05-23T23:59:23.431Z,1.70
